sensor_id;sensor_type;location;lat;lon;timestamp;P1;durP1;ratioP1;P2;durP2;ratioP2
13698;SDS011;6921;53.642;9.956;2023-03-01T00:01:57;13.63;;;8.40;;
13698;SDS011;6921;53.642;9.956;2023-03-01T00:04:00;14.10;;;9.23;;
13698;SDS011;6921;53.642;9.956;2023-03-01T00:06:04;13.07;;;8.60;;
13698;SDS011;6921;53.642;9.956;2023-03-01T00:08:08;14.10;;;9.10;;
13698;SDS011;6921;53.642;9.956;2023-03-01T00:10:11;14.90;;;8.90;;
13698;SDS011;6921;53.642;9.956;2023-03-01T00:12:14;16.47;;;9.03;;
13698;SDS011;6921;53.642;9.956;2023-03-01T00:14:17;13.20;;;8.73;;
13698;SDS011;6921;53.642;9.956;2023-03-01T00:16:21;14.70;;;9.27;;
13698;SDS011;6921;53.642;9.956;2023-03-01T00:18:27;12.83;;;8.50;;
13698;SDS011;6921;53.642;9.956;2023-03-01T00:20:30;16.23;;;8.37;;
13698;SDS011;6921;53.642;9.956;2023-03-01T00:22:33;19.73;;;9.87;;
13698;SDS011;6921;53.642;9.956;2023-03-01T00:24:36;17.07;;;9.90;;
13698;SDS011;6921;53.642;9.956;2023-03-01T00:26:39;15.63;;;9.37;;
13698;SDS011;6921;53.642;9.956;2023-03-01T00:28:42;15.90;;;9.77;;
13698;SDS011;6921;53.642;9.956;2023-03-01T00:30:46;12.97;;;9.50;;
13698;SDS011;6921;53.642;9.956;2023-03-01T00:32:49;14.33;;;8.47;;
13698;SDS011;6921;53.642;9.956;2023-03-01T00:34:54;13.90;;;8.57;;
13698;SDS011;6921;53.642;9.956;2023-03-01T00:36:57;16.33;;;9.63;;
13698;SDS011;6921;53.642;9.956;2023-03-01T00:39:07;16.83;;;9.30;;
13698;SDS011;6921;53.642;9.956;2023-03-01T00:41:14;18.77;;;9.13;;
13698;SDS011;6921;53.642;9.956;2023-03-01T00:43:20;13.43;;;9.17;;
13698;SDS011;6921;53.642;9.956;2023-03-01T00:45:23;16.93;;;8.67;;
13698;SDS011;6921;53.642;9.956;2023-03-01T00:47:28;15.50;;;9.90;;
13698;SDS011;6921;53.642;9.956;2023-03-01T00:49:31;19.23;;;10.03;;
13698;SDS011;6921;53.642;9.956;2023-03-01T00:51:35;14.90;;;9.70;;
13698;SDS011;6921;53.642;9.956;2023-03-01T00:53:40;16.03;;;9.03;;
13698;SDS011;6921;53.642;9.956;2023-03-01T00:55:43;13.33;;;9.40;;
13698;SDS011;6921;53.642;9.956;2023-03-01T00:57:46;13.80;;;8.33;;
13698;SDS011;6921;53.642;9.956;2023-03-01T00:59:50;15.50;;;9.77;;
13698;SDS011;6921;53.642;9.956;2023-03-01T01:01:53;14.83;;;9.17;;
13698;SDS011;6921;53.642;9.956;2023-03-01T01:03:57;14.67;;;9.20;;
13698;SDS011;6921;53.642;9.956;2023-03-01T01:06:01;13.93;;;9.77;;
13698;SDS011;6921;53.642;9.956;2023-03-01T01:08:11;15.07;;;9.53;;
13698;SDS011;6921;53.642;9.956;2023-03-01T01:10:15;16.80;;;9.40;;
13698;SDS011;6921;53.642;9.956;2023-03-01T01:12:19;15.87;;;9.50;;
13698;SDS011;6921;53.642;9.956;2023-03-01T01:14:22;14.33;;;8.93;;
13698;SDS011;6921;53.642;9.956;2023-03-01T01:16:26;15.27;;;9.10;;
13698;SDS011;6921;53.642;9.956;2023-03-01T01:18:30;14.43;;;8.47;;
13698;SDS011;6921;53.642;9.956;2023-03-01T01:20:34;13.10;;;8.87;;
13698;SDS011;6921;53.642;9.956;2023-03-01T01:22:37;14.57;;;8.47;;
13698;SDS011;6921;53.642;9.956;2023-03-01T01:24:42;17.20;;;9.27;;
13698;SDS011;6921;53.642;9.956;2023-03-01T01:26:46;13.47;;;9.30;;
13698;SDS011;6921;53.642;9.956;2023-03-01T01:28:49;13.67;;;8.60;;
13698;SDS011;6921;53.642;9.956;2023-03-01T01:30:53;12.97;;;8.23;;
13698;SDS011;6921;53.642;9.956;2023-03-01T01:32:56;13.03;;;7.93;;
13698;SDS011;6921;53.642;9.956;2023-03-01T01:34:59;12.53;;;8.87;;
13698;SDS011;6921;53.642;9.956;2023-03-01T01:37:03;14.47;;;8.87;;
13698;SDS011;6921;53.642;9.956;2023-03-01T01:39:08;15.40;;;8.77;;
13698;SDS011;6921;53.642;9.956;2023-03-01T01:41:15;14.13;;;8.93;;
13698;SDS011;6921;53.642;9.956;2023-03-01T01:43:20;13.67;;;8.37;;
13698;SDS011;6921;53.642;9.956;2023-03-01T01:45:27;12.67;;;8.03;;
13698;SDS011;6921;53.642;9.956;2023-03-01T01:47:33;12.10;;;7.80;;
13698;SDS011;6921;53.642;9.956;2023-03-01T01:49:37;12.73;;;7.67;;
13698;SDS011;6921;53.642;9.956;2023-03-01T01:51:43;13.53;;;8.47;;
13698;SDS011;6921;53.642;9.956;2023-03-01T01:53:50;11.97;;;7.63;;
13698;SDS011;6921;53.642;9.956;2023-03-01T01:55:58;13.03;;;8.67;;
13698;SDS011;6921;53.642;9.956;2023-03-01T01:58:05;13.93;;;8.37;;
13698;SDS011;6921;53.642;9.956;2023-03-01T02:00:12;12.53;;;7.67;;
13698;SDS011;6921;53.642;9.956;2023-03-01T02:02:17;12.63;;;8.90;;
13698;SDS011;6921;53.642;9.956;2023-03-01T02:04:21;15.00;;;9.03;;
13698;SDS011;6921;53.642;9.956;2023-03-01T02:06:26;15.43;;;8.37;;
13698;SDS011;6921;53.642;9.956;2023-03-01T02:08:33;14.47;;;8.10;;
13698;SDS011;6921;53.642;9.956;2023-03-01T02:10:40;12.43;;;8.37;;
13698;SDS011;6921;53.642;9.956;2023-03-01T02:12:43;12.77;;;8.23;;
13698;SDS011;6921;53.642;9.956;2023-03-01T02:14:48;11.70;;;8.30;;
13698;SDS011;6921;53.642;9.956;2023-03-01T02:16:51;14.27;;;8.57;;
13698;SDS011;6921;53.642;9.956;2023-03-01T02:18:55;15.17;;;8.33;;
13698;SDS011;6921;53.642;9.956;2023-03-01T02:21:04;15.27;;;8.50;;
13698;SDS011;6921;53.642;9.956;2023-03-01T02:23:09;13.83;;;8.00;;
13698;SDS011;6921;53.642;9.956;2023-03-01T02:27:31;12.77;;;8.30;;
13698;SDS011;6921;53.642;9.956;2023-03-01T02:29:40;12.67;;;7.90;;
13698;SDS011;6921;53.642;9.956;2023-03-01T02:31:45;15.27;;;7.80;;
13698;SDS011;6921;53.642;9.956;2023-03-01T02:33:47;13.07;;;8.00;;
13698;SDS011;6921;53.642;9.956;2023-03-01T02:35:51;11.77;;;7.73;;
13698;SDS011;6921;53.642;9.956;2023-03-01T02:37:56;14.20;;;8.27;;
13698;SDS011;6921;53.642;9.956;2023-03-01T02:40:03;11.73;;;7.73;;
13698;SDS011;6921;53.642;9.956;2023-03-01T02:42:13;13.67;;;7.80;;
13698;SDS011;6921;53.642;9.956;2023-03-01T02:44:19;12.13;;;8.10;;
13698;SDS011;6921;53.642;9.956;2023-03-01T02:46:25;12.73;;;8.30;;
13698;SDS011;6921;53.642;9.956;2023-03-01T02:48:28;13.17;;;7.63;;
13698;SDS011;6921;53.642;9.956;2023-03-01T02:50:45;14.07;;;7.97;;
13698;SDS011;6921;53.642;9.956;2023-03-01T02:52:52;14.57;;;7.80;;
13698;SDS011;6921;53.642;9.956;2023-03-01T02:54:58;15.00;;;8.23;;
13698;SDS011;6921;53.642;9.956;2023-03-01T02:57:05;13.23;;;8.03;;
13698;SDS011;6921;53.642;9.956;2023-03-01T02:59:09;11.00;;;7.47;;
13698;SDS011;6921;53.642;9.956;2023-03-01T03:01:12;12.90;;;8.40;;
13698;SDS011;6921;53.642;9.956;2023-03-01T03:03:19;13.53;;;8.00;;
13698;SDS011;6921;53.642;9.956;2023-03-01T03:05:24;13.57;;;8.77;;
13698;SDS011;6921;53.642;9.956;2023-03-01T03:07:28;11.87;;;8.17;;
13698;SDS011;6921;53.642;9.956;2023-03-01T03:09:31;10.57;;;8.00;;
13698;SDS011;6921;53.642;9.956;2023-03-01T03:11:34;13.10;;;8.37;;
13698;SDS011;6921;53.642;9.956;2023-03-01T03:13:40;12.47;;;8.10;;
13698;SDS011;6921;53.642;9.956;2023-03-01T03:15:49;13.90;;;8.20;;
13698;SDS011;6921;53.642;9.956;2023-03-01T03:17:52;12.03;;;7.87;;
13698;SDS011;6921;53.642;9.956;2023-03-01T03:19:57;13.47;;;8.30;;
13698;SDS011;6921;53.642;9.956;2023-03-01T03:22:00;12.47;;;8.13;;
13698;SDS011;6921;53.642;9.956;2023-03-01T03:24:04;13.87;;;7.80;;
13698;SDS011;6921;53.642;9.956;2023-03-01T03:26:07;12.20;;;7.93;;
13698;SDS011;6921;53.642;9.956;2023-03-01T03:28:14;11.87;;;7.60;;
13698;SDS011;6921;53.642;9.956;2023-03-01T03:30:18;13.50;;;7.80;;
13698;SDS011;6921;53.642;9.956;2023-03-01T03:32:22;10.93;;;7.67;;
13698;SDS011;6921;53.642;9.956;2023-03-01T03:34:26;11.90;;;7.50;;
13698;SDS011;6921;53.642;9.956;2023-03-01T03:36:31;11.77;;;8.17;;
13698;SDS011;6921;53.642;9.956;2023-03-01T03:38:34;13.93;;;8.10;;
13698;SDS011;6921;53.642;9.956;2023-03-01T03:40:38;17.70;;;9.13;;
13698;SDS011;6921;53.642;9.956;2023-03-01T03:42:42;14.63;;;8.43;;
13698;SDS011;6921;53.642;9.956;2023-03-01T03:44:45;13.80;;;8.53;;
13698;SDS011;6921;53.642;9.956;2023-03-01T03:46:48;12.83;;;7.87;;
13698;SDS011;6921;53.642;9.956;2023-03-01T03:48:51;12.00;;;7.47;;
13698;SDS011;6921;53.642;9.956;2023-03-01T03:50:55;14.63;;;8.07;;
13698;SDS011;6921;53.642;9.956;2023-03-01T03:53:01;10.47;;;7.13;;
13698;SDS011;6921;53.642;9.956;2023-03-01T03:55:05;15.33;;;8.50;;
13698;SDS011;6921;53.642;9.956;2023-03-01T03:57:12;11.53;;;7.63;;
13698;SDS011;6921;53.642;9.956;2023-03-01T03:59:15;11.57;;;7.90;;
13698;SDS011;6921;53.642;9.956;2023-03-01T04:01:18;13.00;;;8.27;;
13698;SDS011;6921;53.642;9.956;2023-03-01T04:03:22;10.57;;;7.60;;
13698;SDS011;6921;53.642;9.956;2023-03-01T04:05:26;12.17;;;8.17;;
13698;SDS011;6921;53.642;9.956;2023-03-01T04:07:29;12.23;;;7.33;;
13698;SDS011;6921;53.642;9.956;2023-03-01T04:09:34;14.17;;;7.80;;
13698;SDS011;6921;53.642;9.956;2023-03-01T04:11:37;13.53;;;7.57;;
13698;SDS011;6921;53.642;9.956;2023-03-01T04:13:40;14.33;;;8.40;;
13698;SDS011;6921;53.642;9.956;2023-03-01T04:15:43;14.73;;;8.17;;
13698;SDS011;6921;53.642;9.956;2023-03-01T04:17:46;16.70;;;8.07;;
13698;SDS011;6921;53.642;9.956;2023-03-01T04:19:49;12.23;;;7.13;;
13698;SDS011;6921;53.642;9.956;2023-03-01T04:21:52;13.77;;;7.93;;
13698;SDS011;6921;53.642;9.956;2023-03-01T04:23:55;14.83;;;9.27;;
13698;SDS011;6921;53.642;9.956;2023-03-01T04:25:59;11.53;;;7.57;;
13698;SDS011;6921;53.642;9.956;2023-03-01T04:28:02;12.13;;;7.73;;
13698;SDS011;6921;53.642;9.956;2023-03-01T04:30:07;12.50;;;8.20;;
13698;SDS011;6921;53.642;9.956;2023-03-01T04:32:11;13.03;;;7.73;;
13698;SDS011;6921;53.642;9.956;2023-03-01T04:34:17;11.90;;;7.87;;
13698;SDS011;6921;53.642;9.956;2023-03-01T04:36:21;13.20;;;7.90;;
13698;SDS011;6921;53.642;9.956;2023-03-01T04:38:25;13.33;;;8.23;;
13698;SDS011;6921;53.642;9.956;2023-03-01T04:40:28;12.83;;;8.23;;
13698;SDS011;6921;53.642;9.956;2023-03-01T04:42:33;12.90;;;8.03;;
13698;SDS011;6921;53.642;9.956;2023-03-01T04:44:36;11.40;;;7.47;;
13698;SDS011;6921;53.642;9.956;2023-03-01T04:46:39;10.53;;;7.80;;
13698;SDS011;6921;53.642;9.956;2023-03-01T04:48:42;11.80;;;7.70;;
13698;SDS011;6921;53.642;9.956;2023-03-01T04:50:46;11.20;;;7.20;;
13698;SDS011;6921;53.642;9.956;2023-03-01T04:52:49;15.97;;;8.07;;
13698;SDS011;6921;53.642;9.956;2023-03-01T04:54:52;12.77;;;7.50;;
13698;SDS011;6921;53.642;9.956;2023-03-01T04:56:55;14.83;;;8.03;;
13698;SDS011;6921;53.642;9.956;2023-03-01T04:59:00;14.03;;;7.80;;
13698;SDS011;6921;53.642;9.956;2023-03-01T05:01:10;13.63;;;8.17;;
13698;SDS011;6921;53.642;9.956;2023-03-01T05:03:16;10.70;;;7.57;;
13698;SDS011;6921;53.642;9.956;2023-03-01T05:05:20;10.53;;;6.80;;
13698;SDS011;6921;53.642;9.956;2023-03-01T05:07:26;9.73;;;6.83;;
13698;SDS011;6921;53.642;9.956;2023-03-01T05:09:29;10.53;;;6.83;;
13698;SDS011;6921;53.642;9.956;2023-03-01T05:11:33;11.57;;;6.87;;
13698;SDS011;6921;53.642;9.956;2023-03-01T05:13:37;14.63;;;7.93;;
13698;SDS011;6921;53.642;9.956;2023-03-01T05:15:42;11.73;;;7.37;;
13698;SDS011;6921;53.642;9.956;2023-03-01T05:17:45;10.53;;;7.00;;
13698;SDS011;6921;53.642;9.956;2023-03-01T05:19:48;9.63;;;7.20;;
13698;SDS011;6921;53.642;9.956;2023-03-01T05:21:52;10.63;;;7.43;;
13698;SDS011;6921;53.642;9.956;2023-03-01T05:24:05;15.13;;;7.03;;
13698;SDS011;6921;53.642;9.956;2023-03-01T05:26:13;13.47;;;7.67;;
13698;SDS011;6921;53.642;9.956;2023-03-01T05:28:28;9.83;;;6.83;;
13698;SDS011;6921;53.642;9.956;2023-03-01T05:30:32;11.73;;;7.00;;
13698;SDS011;6921;53.642;9.956;2023-03-01T05:32:36;10.17;;;6.77;;
13698;SDS011;6921;53.642;9.956;2023-03-01T05:34:39;12.13;;;7.27;;
13698;SDS011;6921;53.642;9.956;2023-03-01T05:36:43;10.17;;;7.07;;
13698;SDS011;6921;53.642;9.956;2023-03-01T05:38:46;10.30;;;7.33;;
13698;SDS011;6921;53.642;9.956;2023-03-01T05:40:50;12.10;;;7.53;;
13698;SDS011;6921;53.642;9.956;2023-03-01T05:42:53;9.97;;;7.03;;
13698;SDS011;6921;53.642;9.956;2023-03-01T05:44:58;12.70;;;7.73;;
13698;SDS011;6921;53.642;9.956;2023-03-01T05:47:01;10.90;;;7.50;;
13698;SDS011;6921;53.642;9.956;2023-03-01T05:49:06;10.77;;;6.97;;
13698;SDS011;6921;53.642;9.956;2023-03-01T05:51:09;10.87;;;7.17;;
13698;SDS011;6921;53.642;9.956;2023-03-01T05:53:14;9.67;;;6.80;;
13698;SDS011;6921;53.642;9.956;2023-03-01T05:55:17;13.93;;;7.67;;
13698;SDS011;6921;53.642;9.956;2023-03-01T05:57:21;11.63;;;6.90;;
13698;SDS011;6921;53.642;9.956;2023-03-01T05:59:24;10.87;;;7.73;;
13698;SDS011;6921;53.642;9.956;2023-03-01T06:01:27;10.13;;;7.10;;
13698;SDS011;6921;53.642;9.956;2023-03-01T06:03:31;10.10;;;7.00;;
13698;SDS011;6921;53.642;9.956;2023-03-01T06:05:36;10.60;;;7.10;;
13698;SDS011;6921;53.642;9.956;2023-03-01T06:07:41;11.77;;;6.93;;
13698;SDS011;6921;53.642;9.956;2023-03-01T06:09:45;9.23;;;7.07;;
13698;SDS011;6921;53.642;9.956;2023-03-01T06:11:48;12.60;;;6.73;;
13698;SDS011;6921;53.642;9.956;2023-03-01T06:13:52;10.80;;;7.07;;
13698;SDS011;6921;53.642;9.956;2023-03-01T06:15:55;10.50;;;7.17;;
13698;SDS011;6921;53.642;9.956;2023-03-01T06:17:58;10.10;;;7.63;;
13698;SDS011;6921;53.642;9.956;2023-03-01T06:20:02;13.40;;;7.17;;
13698;SDS011;6921;53.642;9.956;2023-03-01T06:22:06;12.17;;;7.53;;
13698;SDS011;6921;53.642;9.956;2023-03-01T06:24:10;13.87;;;8.50;;
13698;SDS011;6921;53.642;9.956;2023-03-01T06:26:13;9.80;;;6.77;;
13698;SDS011;6921;53.642;9.956;2023-03-01T06:28:16;10.80;;;6.80;;
13698;SDS011;6921;53.642;9.956;2023-03-01T06:30:20;10.87;;;7.13;;
13698;SDS011;6921;53.642;9.956;2023-03-01T06:32:24;10.17;;;7.17;;
13698;SDS011;6921;53.642;9.956;2023-03-01T06:34:27;10.17;;;7.03;;
13698;SDS011;6921;53.642;9.956;2023-03-01T06:36:30;9.33;;;6.50;;
13698;SDS011;6921;53.642;9.956;2023-03-01T06:38:35;11.20;;;7.50;;
13698;SDS011;6921;53.642;9.956;2023-03-01T06:40:38;10.03;;;6.97;;
13698;SDS011;6921;53.642;9.956;2023-03-01T06:42:42;11.87;;;7.03;;
13698;SDS011;6921;53.642;9.956;2023-03-01T06:44:49;7.93;;;6.30;;
13698;SDS011;6921;53.642;9.956;2023-03-01T06:46:52;9.80;;;6.60;;
13698;SDS011;6921;53.642;9.956;2023-03-01T06:48:56;10.40;;;7.10;;
13698;SDS011;6921;53.642;9.956;2023-03-01T06:51:00;10.07;;;7.30;;
13698;SDS011;6921;53.642;9.956;2023-03-01T06:53:03;8.63;;;6.70;;
13698;SDS011;6921;53.642;9.956;2023-03-01T06:55:08;12.00;;;7.30;;
13698;SDS011;6921;53.642;9.956;2023-03-01T06:57:11;10.40;;;7.20;;
13698;SDS011;6921;53.642;9.956;2023-03-01T06:59:15;11.50;;;8.07;;
13698;SDS011;6921;53.642;9.956;2023-03-01T07:01:19;11.07;;;7.30;;
13698;SDS011;6921;53.642;9.956;2023-03-01T07:03:22;12.67;;;7.60;;
13698;SDS011;6921;53.642;9.956;2023-03-01T07:05:25;12.77;;;7.63;;
13698;SDS011;6921;53.642;9.956;2023-03-01T07:07:29;10.80;;;7.13;;
13698;SDS011;6921;53.642;9.956;2023-03-01T07:09:32;12.17;;;7.47;;
13698;SDS011;6921;53.642;9.956;2023-03-01T07:11:37;11.90;;;7.00;;
13698;SDS011;6921;53.642;9.956;2023-03-01T07:13:40;10.97;;;7.73;;
13698;SDS011;6921;53.642;9.956;2023-03-01T07:15:43;14.03;;;6.87;;
13698;SDS011;6921;53.642;9.956;2023-03-01T07:17:46;9.13;;;6.60;;
13698;SDS011;6921;53.642;9.956;2023-03-01T07:19:51;11.50;;;7.43;;
13698;SDS011;6921;53.642;9.956;2023-03-01T07:21:55;12.23;;;7.70;;
13698;SDS011;6921;53.642;9.956;2023-03-01T07:23:58;14.17;;;7.40;;
13698;SDS011;6921;53.642;9.956;2023-03-01T07:26:01;10.43;;;7.03;;
13698;SDS011;6921;53.642;9.956;2023-03-01T07:28:07;11.40;;;6.63;;
13698;SDS011;6921;53.642;9.956;2023-03-01T07:30:10;11.73;;;7.10;;
13698;SDS011;6921;53.642;9.956;2023-03-01T07:32:14;10.67;;;6.80;;
13698;SDS011;6921;53.642;9.956;2023-03-01T07:34:17;12.77;;;7.50;;
13698;SDS011;6921;53.642;9.956;2023-03-01T07:36:21;10.77;;;7.47;;
13698;SDS011;6921;53.642;9.956;2023-03-01T07:38:24;14.03;;;7.53;;
13698;SDS011;6921;53.642;9.956;2023-03-01T07:40:27;10.63;;;7.67;;
13698;SDS011;6921;53.642;9.956;2023-03-01T07:42:31;12.40;;;8.10;;
13698;SDS011;6921;53.642;9.956;2023-03-01T07:44:35;11.47;;;7.40;;
13698;SDS011;6921;53.642;9.956;2023-03-01T07:46:38;16.03;;;9.40;;
13698;SDS011;6921;53.642;9.956;2023-03-01T07:48:41;12.83;;;8.77;;
13698;SDS011;6921;53.642;9.956;2023-03-01T07:50:45;12.60;;;8.83;;
13698;SDS011;6921;53.642;9.956;2023-03-01T07:52:49;14.13;;;8.93;;
13698;SDS011;6921;53.642;9.956;2023-03-01T07:54:52;12.80;;;9.00;;
13698;SDS011;6921;53.642;9.956;2023-03-01T07:56:56;13.63;;;9.67;;
13698;SDS011;6921;53.642;9.956;2023-03-01T07:58:59;13.07;;;9.50;;
13698;SDS011;6921;53.642;9.956;2023-03-01T08:01:03;15.87;;;10.13;;
13698;SDS011;6921;53.642;9.956;2023-03-01T08:03:07;13.67;;;9.83;;
13698;SDS011;6921;53.642;9.956;2023-03-01T08:05:10;13.87;;;10.20;;
13698;SDS011;6921;53.642;9.956;2023-03-01T08:07:14;15.70;;;10.37;;
13698;SDS011;6921;53.642;9.956;2023-03-01T08:09:17;14.40;;;10.10;;
13698;SDS011;6921;53.642;9.956;2023-03-01T08:11:20;14.77;;;10.67;;
13698;SDS011;6921;53.642;9.956;2023-03-01T08:13:24;12.53;;;9.07;;
13698;SDS011;6921;53.642;9.956;2023-03-01T08:15:28;14.50;;;9.20;;
13698;SDS011;6921;53.642;9.956;2023-03-01T08:17:32;12.87;;;9.93;;
13698;SDS011;6921;53.642;9.956;2023-03-01T08:19:35;13.77;;;9.90;;
13698;SDS011;6921;53.642;9.956;2023-03-01T08:21:39;13.83;;;10.10;;
13698;SDS011;6921;53.642;9.956;2023-03-01T08:23:43;13.03;;;9.90;;
13698;SDS011;6921;53.642;9.956;2023-03-01T08:25:46;15.23;;;10.27;;
13698;SDS011;6921;53.642;9.956;2023-03-01T08:27:49;15.90;;;10.20;;
13698;SDS011;6921;53.642;9.956;2023-03-01T08:29:53;17.03;;;12.07;;
13698;SDS011;6921;53.642;9.956;2023-03-01T08:31:56;16.53;;;11.83;;
13698;SDS011;6921;53.642;9.956;2023-03-01T08:34:01;18.47;;;11.17;;
13698;SDS011;6921;53.642;9.956;2023-03-01T08:36:06;15.50;;;10.50;;
13698;SDS011;6921;53.642;9.956;2023-03-01T08:38:10;16.47;;;10.17;;
13698;SDS011;6921;53.642;9.956;2023-03-01T08:40:13;14.10;;;10.70;;
13698;SDS011;6921;53.642;9.956;2023-03-01T08:42:16;14.60;;;10.50;;
13698;SDS011;6921;53.642;9.956;2023-03-01T08:44:20;14.23;;;9.93;;
13698;SDS011;6921;53.642;9.956;2023-03-01T08:46:23;13.83;;;10.50;;
13698;SDS011;6921;53.642;9.956;2023-03-01T08:48:27;16.07;;;10.70;;
13698;SDS011;6921;53.642;9.956;2023-03-01T08:50:32;16.57;;;10.50;;
13698;SDS011;6921;53.642;9.956;2023-03-01T08:52:35;16.13;;;11.30;;
13698;SDS011;6921;53.642;9.956;2023-03-01T08:54:38;17.77;;;10.83;;
13698;SDS011;6921;53.642;9.956;2023-03-01T08:56:41;15.53;;;11.23;;
13698;SDS011;6921;53.642;9.956;2023-03-01T08:58:44;15.37;;;11.00;;
13698;SDS011;6921;53.642;9.956;2023-03-01T09:00:49;17.30;;;11.37;;
13698;SDS011;6921;53.642;9.956;2023-03-01T09:02:52;16.03;;;10.97;;
13698;SDS011;6921;53.642;9.956;2023-03-01T09:04:55;16.17;;;10.83;;
13698;SDS011;6921;53.642;9.956;2023-03-01T09:06:59;18.00;;;12.13;;
13698;SDS011;6921;53.642;9.956;2023-03-01T09:09:03;16.53;;;11.43;;
13698;SDS011;6921;53.642;9.956;2023-03-01T09:11:11;18.97;;;10.90;;
13698;SDS011;6921;53.642;9.956;2023-03-01T09:13:16;20.23;;;11.73;;
13698;SDS011;6921;53.642;9.956;2023-03-01T09:15:19;20.13;;;11.20;;
13698;SDS011;6921;53.642;9.956;2023-03-01T09:17:22;18.37;;;11.47;;
13698;SDS011;6921;53.642;9.956;2023-03-01T09:19:25;17.17;;;11.43;;
13698;SDS011;6921;53.642;9.956;2023-03-01T09:21:28;18.27;;;12.63;;
13698;SDS011;6921;53.642;9.956;2023-03-01T09:23:43;19.23;;;12.17;;
13698;SDS011;6921;53.642;9.956;2023-03-01T09:25:48;18.40;;;12.23;;
13698;SDS011;6921;53.642;9.956;2023-03-01T09:27:51;19.87;;;11.60;;
13698;SDS011;6921;53.642;9.956;2023-03-01T09:29:54;16.53;;;11.60;;
13698;SDS011;6921;53.642;9.956;2023-03-01T09:31:58;17.40;;;11.23;;
13698;SDS011;6921;53.642;9.956;2023-03-01T09:34:02;22.87;;;12.57;;
13698;SDS011;6921;53.642;9.956;2023-03-01T09:36:05;20.20;;;12.30;;
13698;SDS011;6921;53.642;9.956;2023-03-01T09:38:10;18.83;;;11.67;;
13698;SDS011;6921;53.642;9.956;2023-03-01T09:40:16;21.30;;;13.23;;
13698;SDS011;6921;53.642;9.956;2023-03-01T09:42:22;20.37;;;12.93;;
13698;SDS011;6921;53.642;9.956;2023-03-01T09:44:29;18.67;;;12.20;;
13698;SDS011;6921;53.642;9.956;2023-03-01T09:46:40;17.67;;;11.73;;
13698;SDS011;6921;53.642;9.956;2023-03-01T09:48:46;19.47;;;12.60;;
13698;SDS011;6921;53.642;9.956;2023-03-01T09:50:53;17.67;;;12.47;;
13698;SDS011;6921;53.642;9.956;2023-03-01T09:53:00;18.97;;;12.20;;
13698;SDS011;6921;53.642;9.956;2023-03-01T09:55:08;16.70;;;11.40;;
13698;SDS011;6921;53.642;9.956;2023-03-01T09:57:17;15.63;;;11.33;;
13698;SDS011;6921;53.642;9.956;2023-03-01T09:59:25;17.00;;;11.43;;
13698;SDS011;6921;53.642;9.956;2023-03-01T10:01:35;18.17;;;11.67;;
13698;SDS011;6921;53.642;9.956;2023-03-01T10:03:49;19.03;;;12.20;;
13698;SDS011;6921;53.642;9.956;2023-03-01T10:06:06;19.43;;;12.03;;
13698;SDS011;6921;53.642;9.956;2023-03-01T10:08:36;19.43;;;11.17;;
13698;SDS011;6921;53.642;9.956;2023-03-01T10:10:43;15.83;;;11.23;;
13698;SDS011;6921;53.642;9.956;2023-03-01T10:12:49;19.27;;;11.73;;
13698;SDS011;6921;53.642;9.956;2023-03-01T10:14:55;16.17;;;10.23;;
13698;SDS011;6921;53.642;9.956;2023-03-01T10:17:07;15.37;;;10.57;;
13698;SDS011;6921;53.642;9.956;2023-03-01T10:19:16;16.60;;;11.00;;
13698;SDS011;6921;53.642;9.956;2023-03-01T10:21:25;15.20;;;9.93;;
13698;SDS011;6921;53.642;9.956;2023-03-01T10:23:31;16.13;;;10.27;;
13698;SDS011;6921;53.642;9.956;2023-03-01T10:25:42;13.57;;;10.07;;
13698;SDS011;6921;53.642;9.956;2023-03-01T10:27:59;16.30;;;10.00;;
13698;SDS011;6921;53.642;9.956;2023-03-01T10:30:09;17.50;;;10.53;;
13698;SDS011;6921;53.642;9.956;2023-03-01T10:32:18;13.53;;;9.47;;
13698;SDS011;6921;53.642;9.956;2023-03-01T10:34:27;15.13;;;10.87;;
13698;SDS011;6921;53.642;9.956;2023-03-01T10:36:32;14.27;;;9.77;;
13698;SDS011;6921;53.642;9.956;2023-03-01T10:38:47;15.33;;;10.00;;
13698;SDS011;6921;53.642;9.956;2023-03-01T10:40:54;12.40;;;9.30;;
13698;SDS011;6921;53.642;9.956;2023-03-01T10:43:01;13.57;;;9.40;;
13698;SDS011;6921;53.642;9.956;2023-03-01T10:45:16;12.97;;;9.30;;
13698;SDS011;6921;53.642;9.956;2023-03-01T10:47:29;18.80;;;8.90;;
13698;SDS011;6921;53.642;9.956;2023-03-01T10:49:33;11.23;;;8.70;;
13698;SDS011;6921;53.642;9.956;2023-03-01T10:51:38;10.83;;;7.67;;
13698;SDS011;6921;53.642;9.956;2023-03-01T10:53:42;12.70;;;8.80;;
13698;SDS011;6921;53.642;9.956;2023-03-01T10:55:46;9.77;;;7.47;;
13698;SDS011;6921;53.642;9.956;2023-03-01T10:57:49;9.67;;;7.07;;
13698;SDS011;6921;53.642;9.956;2023-03-01T11:00:02;9.13;;;7.47;;
13698;SDS011;6921;53.642;9.956;2023-03-01T11:02:24;9.20;;;7.23;;
13698;SDS011;6921;53.642;9.956;2023-03-01T11:04:31;13.43;;;7.87;;
13698;SDS011;6921;53.642;9.956;2023-03-01T11:06:35;10.83;;;7.60;;
13698;SDS011;6921;53.642;9.956;2023-03-01T11:08:39;10.20;;;7.13;;
13698;SDS011;6921;53.642;9.956;2023-03-01T11:10:44;9.33;;;7.20;;
13698;SDS011;6921;53.642;9.956;2023-03-01T11:12:47;8.87;;;6.60;;
13698;SDS011;6921;53.642;9.956;2023-03-01T11:14:52;11.03;;;7.60;;
13698;SDS011;6921;53.642;9.956;2023-03-01T11:17:01;8.67;;;6.53;;
13698;SDS011;6921;53.642;9.956;2023-03-01T11:19:17;10.07;;;7.10;;
13698;SDS011;6921;53.642;9.956;2023-03-01T11:21:20;9.17;;;7.23;;
13698;SDS011;6921;53.642;9.956;2023-03-01T11:23:24;11.47;;;7.70;;
13698;SDS011;6921;53.642;9.956;2023-03-01T11:25:31;10.27;;;7.77;;
13698;SDS011;6921;53.642;9.956;2023-03-01T11:27:38;9.93;;;7.47;;
13698;SDS011;6921;53.642;9.956;2023-03-01T11:29:44;10.87;;;7.67;;
13698;SDS011;6921;53.642;9.956;2023-03-01T11:31:52;9.57;;;7.20;;
13698;SDS011;6921;53.642;9.956;2023-03-01T11:34:03;9.10;;;7.30;;
13698;SDS011;6921;53.642;9.956;2023-03-01T11:36:19;9.73;;;7.30;;
13698;SDS011;6921;53.642;9.956;2023-03-01T11:38:32;9.35;;;6.90;;
13698;SDS011;6921;53.642;9.956;2023-03-01T11:40:39;7.07;;;6.35;;
13698;SDS011;6921;53.642;9.956;2023-03-01T11:42:51;17.45;;;7.35;;
13698;SDS011;6921;53.642;9.956;2023-03-01T11:45:05;7.93;;;6.72;;
13698;SDS011;6921;53.642;9.956;2023-03-01T11:47:17;8.15;;;7.00;;
13698;SDS011;6921;53.642;9.956;2023-03-01T11:49:44;9.20;;;6.63;;
13698;SDS011;6921;53.642;9.956;2023-03-01T11:52:00;8.68;;;6.65;;
13698;SDS011;6921;53.642;9.956;2023-03-01T11:54:18;7.93;;;6.25;;
13698;SDS011;6921;53.642;9.956;2023-03-01T11:56:38;8.02;;;7.05;;
13698;SDS011;6921;53.642;9.956;2023-03-01T11:58:45;9.73;;;6.70;;
13698;SDS011;6921;53.642;9.956;2023-03-01T12:01:06;7.10;;;6.35;;
13698;SDS011;6921;53.642;9.956;2023-03-01T12:03:27;8.63;;;7.22;;
13698;SDS011;6921;53.642;9.956;2023-03-01T12:05:47;9.30;;;7.60;;
13698;SDS011;6921;53.642;9.956;2023-03-01T12:08:06;8.52;;;7.13;;
13698;SDS011;6921;53.642;9.956;2023-03-01T12:10:20;8.80;;;7.30;;
13698;SDS011;6921;53.642;9.956;2023-03-01T12:12:28;8.05;;;7.25;;
13698;SDS011;6921;53.642;9.956;2023-03-01T12:14:43;7.80;;;6.90;;
13698;SDS011;6921;53.642;9.956;2023-03-01T12:17:07;7.82;;;7.03;;
13698;SDS011;6921;53.642;9.956;2023-03-01T12:19:42;9.95;;;7.20;;
13698;SDS011;6921;53.642;9.956;2023-03-01T12:22:08;7.72;;;6.90;;
13698;SDS011;6921;53.642;9.956;2023-03-01T12:24:25;7.70;;;6.07;;
13698;SDS011;6921;53.642;9.956;2023-03-01T12:27:06;6.93;;;5.97;;
13698;SDS011;6921;53.642;9.956;2023-03-01T12:29:24;7.65;;;6.60;;
13698;SDS011;6921;53.642;9.956;2023-03-01T12:34:02;7.57;;;6.40;;
13698;SDS011;6921;53.642;9.956;2023-03-01T12:36:15;8.07;;;6.72;;
13698;SDS011;6921;53.642;9.956;2023-03-01T12:38:39;7.18;;;6.28;;
13698;SDS011;6921;53.642;9.956;2023-03-01T12:43:31;8.25;;;7.13;;
13698;SDS011;6921;53.642;9.956;2023-03-01T12:46:02;8.13;;;6.85;;
13698;SDS011;6921;53.642;9.956;2023-03-01T12:48:24;7.93;;;6.43;;